sensor_id;sensor_type;location;lat;lon;timestamp;temperature;humidity
21508;DHT22;10915;54.352;9.074;2023-03-24T00:02:19;10.80;99.90
21508;DHT22;10915;54.352;9.074;2023-03-24T00:04:48;10.80;99.90
21508;DHT22;10915;54.352;9.074;2023-03-24T00:07:15;10.80;99.90
21508;DHT22;10915;54.352;9.074;2023-03-24T00:09:42;10.80;99.90
21508;DHT22;10915;54.352;9.074;2023-03-24T00:12:09;10.80;99.90
21508;DHT22;10915;54.352;9.074;2023-03-24T00:14:36;10.90;99.90
21508;DHT22;10915;54.352;9.074;2023-03-24T00:17:04;10.90;99.90
21508;DHT22;10915;54.352;9.074;2023-03-24T00:19:31;11.00;99.90
21508;DHT22;10915;54.352;9.074;2023-03-24T00:21:58;11.00;99.90
21508;DHT22;10915;54.352;9.074;2023-03-24T00:24:25;11.00;99.90
21508;DHT22;10915;54.352;9.074;2023-03-24T00:26:51;10.90;99.90
21508;DHT22;10915;54.352;9.074;2023-03-24T00:29:22;10.90;99.90
21508;DHT22;10915;54.352;9.074;2023-03-24T00:31:49;10.90;99.90
21508;DHT22;10915;54.352;9.074;2023-03-24T00:34:17;10.90;99.90
21508;DHT22;10915;54.352;9.074;2023-03-24T00:36:46;10.90;99.90
21508;DHT22;10915;54.352;9.074;2023-03-24T00:39:13;10.90;99.90
21508;DHT22;10915;54.352;9.074;2023-03-24T00:41:41;10.90;99.90
21508;DHT22;10915;54.352;9.074;2023-03-24T00:44:10;10.90;99.90
21508;DHT22;10915;54.352;9.074;2023-03-24T00:46:43;10.80;99.90
21508;DHT22;10915;54.352;9.074;2023-03-24T00:49:10;10.80;99.90
21508;DHT22;10915;54.352;9.074;2023-03-24T00:51:39;10.80;99.90
21508;DHT22;10915;54.352;9.074;2023-03-24T00:54:06;10.80;99.90
21508;DHT22;10915;54.352;9.074;2023-03-24T00:56:35;10.80;99.90
21508;DHT22;10915;54.352;9.074;2023-03-24T00:59:02;10.80;99.90
21508;DHT22;10915;54.352;9.074;2023-03-24T01:01:31;10.80;99.90
21508;DHT22;10915;54.352;9.074;2023-03-24T01:04:01;10.80;99.90
21508;DHT22;10915;54.352;9.074;2023-03-24T01:06:27;10.80;99.90
21508;DHT22;10915;54.352;9.074;2023-03-24T01:08:53;10.80;99.90
21508;DHT22;10915;54.352;9.074;2023-03-24T01:11:21;10.80;99.90
21508;DHT22;10915;54.352;9.074;2023-03-24T01:13:48;10.80;99.90
21508;DHT22;10915;54.352;9.074;2023-03-24T01:16:13;10.80;99.90
21508;DHT22;10915;54.352;9.074;2023-03-24T01:18:40;10.80;99.90
21508;DHT22;10915;54.352;9.074;2023-03-24T01:21:08;10.80;99.90
21508;DHT22;10915;54.352;9.074;2023-03-24T01:23:36;10.80;99.90
21508;DHT22;10915;54.352;9.074;2023-03-24T01:26:06;10.80;99.90
21508;DHT22;10915;54.352;9.074;2023-03-24T01:28:33;10.80;99.90
21508;DHT22;10915;54.352;9.074;2023-03-24T01:31:00;10.80;99.90
21508;DHT22;10915;54.352;9.074;2023-03-24T01:33:25;10.80;99.90
21508;DHT22;10915;54.352;9.074;2023-03-24T01:35:51;10.80;99.90
21508;DHT22;10915;54.352;9.074;2023-03-24T01:38:17;10.80;99.90
21508;DHT22;10915;54.352;9.074;2023-03-24T01:40:44;10.80;99.90
21508;DHT22;10915;54.352;9.074;2023-03-24T01:43:22;10.80;99.90
21508;DHT22;10915;54.352;9.074;2023-03-24T01:46:17;10.80;99.90
21508;DHT22;10915;54.352;9.074;2023-03-24T01:49:02;10.80;99.90
21508;DHT22;10915;54.352;9.074;2023-03-24T01:51:42;10.80;99.90
21508;DHT22;10915;54.352;9.074;2023-03-24T01:56:46;10.80;99.90
21508;DHT22;10915;54.352;9.074;2023-03-24T01:59:17;10.80;99.90
21508;DHT22;10915;54.352;9.074;2023-03-24T02:01:43;10.80;99.90
21508;DHT22;10915;54.352;9.074;2023-03-24T02:04:10;10.80;99.90
21508;DHT22;10915;54.352;9.074;2023-03-24T02:06:39;10.80;99.90
21508;DHT22;10915;54.352;9.074;2023-03-24T02:09:09;10.90;99.90
21508;DHT22;10915;54.352;9.074;2023-03-24T02:11:36;10.90;99.90
21508;DHT22;10915;54.352;9.074;2023-03-24T02:14:03;10.90;99.90
21508;DHT22;10915;54.352;9.074;2023-03-24T02:22:40;10.90;99.90
21508;DHT22;10915;54.352;9.074;2023-03-24T02:28:19;10.90;99.90
21508;DHT22;10915;54.352;9.074;2023-03-24T02:39:50;10.90;99.90
21508;DHT22;10915;54.352;9.074;2023-03-24T02:45:25;10.90;99.90
21508;DHT22;10915;54.352;9.074;2023-03-24T02:50:41;10.90;99.90
21508;DHT22;10915;54.352;9.074;2023-03-24T02:53:14;10.90;99.90
21508;DHT22;10915;54.352;9.074;2023-03-24T02:55:54;10.90;99.90
21508;DHT22;10915;54.352;9.074;2023-03-24T02:58:31;10.90;99.90
21508;DHT22;10915;54.352;9.074;2023-03-24T03:01:05;10.90;99.90
21508;DHT22;10915;54.352;9.074;2023-03-24T03:03:48;10.90;99.90
21508;DHT22;10915;54.352;9.074;2023-03-24T03:06:19;10.90;99.90
21508;DHT22;10915;54.352;9.074;2023-03-24T03:08:47;10.90;99.90
21508;DHT22;10915;54.352;9.074;2023-03-24T03:11:14;10.90;99.90
21508;DHT22;10915;54.352;9.074;2023-03-24T03:13:57;10.90;99.90
21508;DHT22;10915;54.352;9.074;2023-03-24T03:16:34;10.90;99.90
21508;DHT22;10915;54.352;9.074;2023-03-24T03:19:10;10.90;99.90
21508;DHT22;10915;54.352;9.074;2023-03-24T03:21:40;10.90;99.90
21508;DHT22;10915;54.352;9.074;2023-03-24T03:24:11;10.90;99.90
21508;DHT22;10915;54.352;9.074;2023-03-24T03:26:41;10.90;99.90
21508;DHT22;10915;54.352;9.074;2023-03-24T03:29:18;10.90;99.90
21508;DHT22;10915;54.352;9.074;2023-03-24T03:31:57;10.90;99.90
21508;DHT22;10915;54.352;9.074;2023-03-24T03:34:55;10.90;99.90
21508;DHT22;10915;54.352;9.074;2023-03-24T03:37:39;10.90;99.90
21508;DHT22;10915;54.352;9.074;2023-03-24T03:40:21;10.90;99.90
21508;DHT22;10915;54.352;9.074;2023-03-24T03:42:49;10.90;99.90
21508;DHT22;10915;54.352;9.074;2023-03-24T03:45:16;10.90;99.90
21508;DHT22;10915;54.352;9.074;2023-03-24T03:47:42;10.90;99.90
21508;DHT22;10915;54.352;9.074;2023-03-24T03:50:08;10.90;99.90
21508;DHT22;10915;54.352;9.074;2023-03-24T03:52:36;10.90;99.90
21508;DHT22;10915;54.352;9.074;2023-03-24T03:55:04;10.90;99.90
21508;DHT22;10915;54.352;9.074;2023-03-24T03:57:30;10.90;99.90
21508;DHT22;10915;54.352;9.074;2023-03-24T03:59:57;10.90;99.90
21508;DHT22;10915;54.352;9.074;2023-03-24T04:05:29;10.90;99.90
21508;DHT22;10915;54.352;9.074;2023-03-24T04:27:24;11.00;99.90
21508;DHT22;10915;54.352;9.074;2023-03-24T04:32:34;11.00;99.90
21508;DHT22;10915;54.352;9.074;2023-03-24T04:35:31;11.00;99.90
21508;DHT22;10915;54.352;9.074;2023-03-24T04:38:02;11.10;99.90
21508;DHT22;10915;54.352;9.074;2023-03-24T04:40:32;11.10;99.90
21508;DHT22;10915;54.352;9.074;2023-03-24T04:43:01;11.10;99.90
21508;DHT22;10915;54.352;9.074;2023-03-24T04:45:29;11.10;99.90
21508;DHT22;10915;54.352;9.074;2023-03-24T04:48:00;11.20;99.90
21508;DHT22;10915;54.352;9.074;2023-03-24T04:52:55;11.20;99.90
21508;DHT22;10915;54.352;9.074;2023-03-24T04:58:14;11.20;99.90
21508;DHT22;10915;54.352;9.074;2023-03-24T05:00:39;11.20;99.90
21508;DHT22;10915;54.352;9.074;2023-03-24T05:03:06;11.20;99.90
21508;DHT22;10915;54.352;9.074;2023-03-24T05:05:31;11.30;99.90
21508;DHT22;10915;54.352;9.074;2023-03-24T05:07:57;11.30;99.90
21508;DHT22;10915;54.352;9.074;2023-03-24T05:10:23;11.30;99.90
21508;DHT22;10915;54.352;9.074;2023-03-24T05:12:49;11.30;99.90
21508;DHT22;10915;54.352;9.074;2023-03-24T05:15:14;11.40;99.90
21508;DHT22;10915;54.352;9.074;2023-03-24T05:17:40;11.40;99.90
21508;DHT22;10915;54.352;9.074;2023-03-24T05:20:06;11.40;99.90
21508;DHT22;10915;54.352;9.074;2023-03-24T05:22:36;11.40;99.90
21508;DHT22;10915;54.352;9.074;2023-03-24T05:25:03;11.40;99.90
21508;DHT22;10915;54.352;9.074;2023-03-24T05:27:29;11.40;99.90
21508;DHT22;10915;54.352;9.074;2023-03-24T05:29:54;11.40;99.90
21508;DHT22;10915;54.352;9.074;2023-03-24T05:32:20;11.40;99.90
21508;DHT22;10915;54.352;9.074;2023-03-24T05:34:46;11.40;99.90
21508;DHT22;10915;54.352;9.074;2023-03-24T05:37:12;11.40;99.90
21508;DHT22;10915;54.352;9.074;2023-03-24T05:39:40;11.40;99.90
21508;DHT22;10915;54.352;9.074;2023-03-24T05:42:06;11.50;99.90
21508;DHT22;10915;54.352;9.074;2023-03-24T05:44:31;11.50;99.90
21508;DHT22;10915;54.352;9.074;2023-03-24T05:46:57;11.40;99.90
21508;DHT22;10915;54.352;9.074;2023-03-24T05:49:22;11.50;99.90
21508;DHT22;10915;54.352;9.074;2023-03-24T05:51:48;11.50;99.90
21508;DHT22;10915;54.352;9.074;2023-03-24T05:54:14;11.40;99.90
21508;DHT22;10915;54.352;9.074;2023-03-24T05:56:40;11.30;99.90
21508;DHT22;10915;54.352;9.074;2023-03-24T05:59:06;11.30;99.90
21508;DHT22;10915;54.352;9.074;2023-03-24T06:01:31;11.20;99.90
21508;DHT22;10915;54.352;9.074;2023-03-24T06:03:57;11.10;99.90
21508;DHT22;10915;54.352;9.074;2023-03-24T06:06:23;11.00;99.90
21508;DHT22;10915;54.352;9.074;2023-03-24T06:08:48;10.90;99.90
21508;DHT22;10915;54.352;9.074;2023-03-24T06:11:14;10.90;99.90
21508;DHT22;10915;54.352;9.074;2023-03-24T06:13:40;10.90;99.90
21508;DHT22;10915;54.352;9.074;2023-03-24T06:16:06;10.80;99.90
21508;DHT22;10915;54.352;9.074;2023-03-24T06:18:32;10.80;99.90
21508;DHT22;10915;54.352;9.074;2023-03-24T06:20:59;10.70;99.90
21508;DHT22;10915;54.352;9.074;2023-03-24T06:23:26;10.60;99.90
21508;DHT22;10915;54.352;9.074;2023-03-24T06:25:55;10.50;99.90
21508;DHT22;10915;54.352;9.074;2023-03-24T06:28:22;10.50;99.90
21508;DHT22;10915;54.352;9.074;2023-03-24T06:30:50;10.50;99.90
21508;DHT22;10915;54.352;9.074;2023-03-24T06:33:16;10.40;99.90
21508;DHT22;10915;54.352;9.074;2023-03-24T06:35:42;10.30;99.90
21508;DHT22;10915;54.352;9.074;2023-03-24T06:38:08;10.30;99.90
21508;DHT22;10915;54.352;9.074;2023-03-24T06:40:34;10.20;99.90
21508;DHT22;10915;54.352;9.074;2023-03-24T06:43:00;10.30;99.90
21508;DHT22;10915;54.352;9.074;2023-03-24T06:45:25;10.20;99.90
21508;DHT22;10915;54.352;9.074;2023-03-24T06:47:52;10.10;99.90
21508;DHT22;10915;54.352;9.074;2023-03-24T06:50:21;10.10;99.90
21508;DHT22;10915;54.352;9.074;2023-03-24T06:52:51;10.00;99.90
21508;DHT22;10915;54.352;9.074;2023-03-24T06:55:17;10.00;99.90
21508;DHT22;10915;54.352;9.074;2023-03-24T06:57:42;9.90;99.90
21508;DHT22;10915;54.352;9.074;2023-03-24T07:00:09;9.80;99.90
21508;DHT22;10915;54.352;9.074;2023-03-24T07:02:36;9.80;99.90
21508;DHT22;10915;54.352;9.074;2023-03-24T07:05:03;9.80;99.90
21508;DHT22;10915;54.352;9.074;2023-03-24T07:07:34;9.80;99.90
21508;DHT22;10915;54.352;9.074;2023-03-24T07:10:00;9.90;99.90
21508;DHT22;10915;54.352;9.074;2023-03-24T07:12:26;10.00;99.90
21508;DHT22;10915;54.352;9.074;2023-03-24T07:14:52;10.10;99.90
21508;DHT22;10915;54.352;9.074;2023-03-24T07:17:18;10.30;99.90
21508;DHT22;10915;54.352;9.074;2023-03-24T07:19:43;10.50;99.90
21508;DHT22;10915;54.352;9.074;2023-03-24T07:22:11;10.70;99.90
21508;DHT22;10915;54.352;9.074;2023-03-24T07:24:36;11.00;99.90
21508;DHT22;10915;54.352;9.074;2023-03-24T07:27:02;11.20;99.90
21508;DHT22;10915;54.352;9.074;2023-03-24T07:29:28;11.40;99.90
21508;DHT22;10915;54.352;9.074;2023-03-24T07:31:54;11.50;99.90
21508;DHT22;10915;54.352;9.074;2023-03-24T07:34:23;11.60;99.90
21508;DHT22;10915;54.352;9.074;2023-03-24T07:36:50;11.50;99.90
21508;DHT22;10915;54.352;9.074;2023-03-24T07:39:16;11.50;99.90
21508;DHT22;10915;54.352;9.074;2023-03-24T07:41:42;11.40;99.90
21508;DHT22;10915;54.352;9.074;2023-03-24T07:44:08;11.50;99.90
21508;DHT22;10915;54.352;9.074;2023-03-24T07:46:34;11.50;99.90
21508;DHT22;10915;54.352;9.074;2023-03-24T07:49:01;11.50;99.90
21508;DHT22;10915;54.352;9.074;2023-03-24T07:51:27;11.50;99.90
21508;DHT22;10915;54.352;9.074;2023-03-24T07:53:53;11.40;99.90
21508;DHT22;10915;54.352;9.074;2023-03-24T07:56:19;11.30;99.90
21508;DHT22;10915;54.352;9.074;2023-03-24T07:58:44;11.20;99.90
21508;DHT22;10915;54.352;9.074;2023-03-24T08:01:10;11.10;99.90
21508;DHT22;10915;54.352;9.074;2023-03-24T08:03:36;11.10;99.90
21508;DHT22;10915;54.352;9.074;2023-03-24T08:06:03;11.10;99.90
21508;DHT22;10915;54.352;9.074;2023-03-24T08:08:30;11.00;99.90
21508;DHT22;10915;54.352;9.074;2023-03-24T08:10:56;10.90;99.90
21508;DHT22;10915;54.352;9.074;2023-03-24T08:13:22;11.00;99.90
21508;DHT22;10915;54.352;9.074;2023-03-24T08:15:48;11.00;99.90
21508;DHT22;10915;54.352;9.074;2023-03-24T08:18:14;11.00;99.90
21508;DHT22;10915;54.352;9.074;2023-03-24T08:20:40;11.00;99.90
21508;DHT22;10915;54.352;9.074;2023-03-24T08:23:06;11.10;99.90
21508;DHT22;10915;54.352;9.074;2023-03-24T08:25:33;11.20;99.90
21508;DHT22;10915;54.352;9.074;2023-03-24T08:28:00;11.20;99.90
21508;DHT22;10915;54.352;9.074;2023-03-24T08:30:26;11.10;99.90
21508;DHT22;10915;54.352;9.074;2023-03-24T08:32:57;11.10;99.90
21508;DHT22;10915;54.352;9.074;2023-03-24T08:35:26;11.20;99.90
21508;DHT22;10915;54.352;9.074;2023-03-24T08:37:52;11.20;99.90
21508;DHT22;10915;54.352;9.074;2023-03-24T08:40:20;11.20;99.90
21508;DHT22;10915;54.352;9.074;2023-03-24T08:42:53;11.30;99.90
21508;DHT22;10915;54.352;9.074;2023-03-24T08:45:20;11.30;99.90
21508;DHT22;10915;54.352;9.074;2023-03-24T08:47:49;11.20;99.90
21508;DHT22;10915;54.352;9.074;2023-03-24T08:50:18;11.10;99.90
21508;DHT22;10915;54.352;9.074;2023-03-24T08:52:44;11.10;99.90
21508;DHT22;10915;54.352;9.074;2023-03-24T08:55:13;11.10;99.90
21508;DHT22;10915;54.352;9.074;2023-03-24T08:57:39;11.00;99.90
21508;DHT22;10915;54.352;9.074;2023-03-24T09:00:05;11.10;99.90
21508;DHT22;10915;54.352;9.074;2023-03-24T09:02:41;11.10;99.90
21508;DHT22;10915;54.352;9.074;2023-03-24T09:05:07;11.10;99.90
21508;DHT22;10915;54.352;9.074;2023-03-24T09:07:33;10.90;99.90
21508;DHT22;10915;54.352;9.074;2023-03-24T09:09:59;10.90;99.90
21508;DHT22;10915;54.352;9.074;2023-03-24T09:12:25;10.90;99.90
21508;DHT22;10915;54.352;9.074;2023-03-24T09:14:51;11.00;99.90
21508;DHT22;10915;54.352;9.074;2023-03-24T09:17:17;11.00;99.90
21508;DHT22;10915;54.352;9.074;2023-03-24T09:19:43;11.00;99.90
21508;DHT22;10915;54.352;9.074;2023-03-24T09:22:10;11.00;99.90
21508;DHT22;10915;54.352;9.074;2023-03-24T09:24:35;11.10;99.90
21508;DHT22;10915;54.352;9.074;2023-03-24T09:27:02;11.20;99.90
21508;DHT22;10915;54.352;9.074;2023-03-24T09:29:28;11.20;99.90
21508;DHT22;10915;54.352;9.074;2023-03-24T09:31:55;11.30;99.90
21508;DHT22;10915;54.352;9.074;2023-03-24T09:34:21;11.40;99.90
21508;DHT22;10915;54.352;9.074;2023-03-24T09:36:48;11.60;99.90
21508;DHT22;10915;54.352;9.074;2023-03-24T09:39:13;11.70;99.90
21508;DHT22;10915;54.352;9.074;2023-03-24T09:41:39;12.00;99.90
21508;DHT22;10915;54.352;9.074;2023-03-24T09:44:24;12.20;99.90
21508;DHT22;10915;54.352;9.074;2023-03-24T09:47:02;12.60;99.90
21508;DHT22;10915;54.352;9.074;2023-03-24T09:49:32;12.90;99.90
21508;DHT22;10915;54.352;9.074;2023-03-24T09:52:06;12.90;99.90
21508;DHT22;10915;54.352;9.074;2023-03-24T09:57:23;12.90;99.90
21508;DHT22;10915;54.352;9.074;2023-03-24T09:59:49;13.00;99.90
21508;DHT22;10915;54.352;9.074;2023-03-24T10:02:21;13.10;99.90
21508;DHT22;10915;54.352;9.074;2023-03-24T10:04:52;13.00;99.90
21508;DHT22;10915;54.352;9.074;2023-03-24T10:09:55;13.10;99.90
21508;DHT22;10915;54.352;9.074;2023-03-24T10:15:29;13.00;99.90
21508;DHT22;10915;54.352;9.074;2023-03-24T10:18:32;13.20;99.90
21508;DHT22;10915;54.352;9.074;2023-03-24T10:26:43;13.30;99.90
21508;DHT22;10915;54.352;9.074;2023-03-24T10:34:35;13.20;99.90
21508;DHT22;10915;54.352;9.074;2023-03-24T10:37:03;13.20;99.90
21508;DHT22;10915;54.352;9.074;2023-03-24T10:39:30;13.20;99.90
21508;DHT22;10915;54.352;9.074;2023-03-24T10:41:58;13.00;99.90
21508;DHT22;10915;54.352;9.074;2023-03-24T10:44:25;12.90;99.90
21508;DHT22;10915;54.352;9.074;2023-03-24T10:46:54;13.00;99.90
21508;DHT22;10915;54.352;9.074;2023-03-24T10:49:21;13.20;99.90
21508;DHT22;10915;54.352;9.074;2023-03-24T10:52:00;13.30;99.90
21508;DHT22;10915;54.352;9.074;2023-03-24T10:54:29;13.40;99.90
21508;DHT22;10915;54.352;9.074;2023-03-24T10:59:30;13.40;99.90
21508;DHT22;10915;54.352;9.074;2023-03-24T11:04:39;13.50;99.90
21508;DHT22;10915;54.352;9.074;2023-03-24T11:07:15;13.40;99.90
21508;DHT22;10915;54.352;9.074;2023-03-24T11:09:46;13.40;99.90
21508;DHT22;10915;54.352;9.074;2023-03-24T11:12:41;13.20;99.90
21508;DHT22;10915;54.352;9.074;2023-03-24T11:15:25;13.10;99.90
21508;DHT22;10915;54.352;9.074;2023-03-24T11:17:59;13.10;99.90
21508;DHT22;10915;54.352;9.074;2023-03-24T11:20:31;13.00;99.90
21508;DHT22;10915;54.352;9.074;2023-03-24T11:23:07;13.10;99.90
21508;DHT22;10915;54.352;9.074;2023-03-24T11:25:37;13.10;99.90
21508;DHT22;10915;54.352;9.074;2023-03-24T11:28:12;13.20;99.90
21508;DHT22;10915;54.352;9.074;2023-03-24T11:30:52;13.20;99.90
21508;DHT22;10915;54.352;9.074;2023-03-24T11:33:30;13.20;99.90
21508;DHT22;10915;54.352;9.074;2023-03-24T11:35:59;13.30;99.90
21508;DHT22;10915;54.352;9.074;2023-03-24T11:38:31;13.30;99.90
21508;DHT22;10915;54.352;9.074;2023-03-24T11:41:01;13.40;99.90
21508;DHT22;10915;54.352;9.074;2023-03-24T11:43:30;13.30;99.90
21508;DHT22;10915;54.352;9.074;2023-03-24T11:46:23;13.30;99.90
21508;DHT22;10915;54.352;9.074;2023-03-24T11:48:50;13.30;99.90
21508;DHT22;10915;54.352;9.074;2023-03-24T11:51:37;13.30;99.90
21508;DHT22;10915;54.352;9.074;2023-03-24T11:54:12;13.30;99.90
21508;DHT22;10915;54.352;9.074;2023-03-24T11:56:44;13.30;99.90
21508;DHT22;10915;54.352;9.074;2023-03-24T12:05:20;13.40;99.90
21508;DHT22;10915;54.352;9.074;2023-03-24T12:08:07;13.40;99.90
21508;DHT22;10915;54.352;9.074;2023-03-24T12:13:32;13.50;99.90
21508;DHT22;10915;54.352;9.074;2023-03-24T12:21:48;13.40;99.90
21508;DHT22;10915;54.352;9.074;2023-03-24T12:30:05;13.60;99.90
21508;DHT22;10915;54.352;9.074;2023-03-24T12:45:45;13.40;99.90
21508;DHT22;10915;54.352;9.074;2023-03-24T12:56:11;13.50;99.90
21508;DHT22;10915;54.352;9.074;2023-03-24T12:58:49;13.50;99.90
21508;DHT22;10915;54.352;9.074;2023-03-24T13:04:18;13.20;99.90
21508;DHT22;10915;54.352;9.074;2023-03-24T13:06:52;13.10;99.90
21508;DHT22;10915;54.352;9.074;2023-03-24T13:17:40;13.30;99.90
21508;DHT22;10915;54.352;9.074;2023-03-24T13:20:26;13.20;99.90
21508;DHT22;10915;54.352;9.074;2023-03-24T13:22:54;13.20;99.90
21508;DHT22;10915;54.352;9.074;2023-03-24T13:28:22;13.20;99.90
21508;DHT22;10915;54.352;9.074;2023-03-24T13:30:49;13.20;99.90
21508;DHT22;10915;54.352;9.074;2023-03-24T13:33:21;13.20;99.90
21508;DHT22;10915;54.352;9.074;2023-03-24T13:36:30;13.20;99.90
21508;DHT22;10915;54.352;9.074;2023-03-24T13:39:03;13.30;99.90
21508;DHT22;10915;54.352;9.074;2023-03-24T13:41:34;13.20;99.90
21508;DHT22;10915;54.352;9.074;2023-03-24T13:44:07;13.20;99.90
21508;DHT22;10915;54.352;9.074;2023-03-24T13:46:36;13.10;99.90
21508;DHT22;10915;54.352;9.074;2023-03-24T13:49:05;13.00;99.90
21508;DHT22;10915;54.352;9.074;2023-03-24T13:51:35;13.00;99.90
21508;DHT22;10915;54.352;9.074;2023-03-24T13:56:35;13.10;99.90
21508;DHT22;10915;54.352;9.074;2023-03-24T14:01:36;13.00;99.90
21508;DHT22;10915;54.352;9.074;2023-03-24T14:06:46;12.70;99.90
21508;DHT22;10915;54.352;9.074;2023-03-24T14:14:22;13.00;99.90
21508;DHT22;10915;54.352;9.074;2023-03-24T14:16:52;13.10;99.90
21508;DHT22;10915;54.352;9.074;2023-03-24T14:22:21;13.20;99.90
21508;DHT22;10915;54.352;9.074;2023-03-24T14:25:05;13.20;99.90
21508;DHT22;10915;54.352;9.074;2023-03-24T14:27:46;13.20;99.90
21508;DHT22;10915;54.352;9.074;2023-03-24T14:30:24;13.10;99.90
21508;DHT22;10915;54.352;9.074;2023-03-24T14:32:57;13.20;99.90
21508;DHT22;10915;54.352;9.074;2023-03-24T14:35:39;13.10;99.90
21508;DHT22;10915;54.352;9.074;2023-03-24T14:40:45;13.10;99.90
21508;DHT22;10915;54.352;9.074;2023-03-24T14:43:27;13.10;99.90
21508;DHT22;10915;54.352;9.074;2023-03-24T14:56:54;13.10;99.90
21508;DHT22;10915;54.352;9.074;2023-03-24T15:07:42;12.80;99.90
21508;DHT22;10915;54.352;9.074;2023-03-24T15:10:16;12.80;99.90
21508;DHT22;10915;54.352;9.074;2023-03-24T15:12:46;12.70;99.90
21508;DHT22;10915;54.352;9.074;2023-03-24T15:15:23;12.70;99.90
21508;DHT22;10915;54.352;9.074;2023-03-24T15:17:50;12.70;99.90
21508;DHT22;10915;54.352;9.074;2023-03-24T15:20:24;12.70;99.90
21508;DHT22;10915;54.352;9.074;2023-03-24T15:22:51;12.70;99.90
21508;DHT22;10915;54.352;9.074;2023-03-24T15:25:27;12.60;99.90
21508;DHT22;10915;54.352;9.074;2023-03-24T15:27:54;12.60;99.90
21508;DHT22;10915;54.352;9.074;2023-03-24T15:30:21;12.50;99.90
21508;DHT22;10915;54.352;9.074;2023-03-24T15:32:46;12.50;99.90
21508;DHT22;10915;54.352;9.074;2023-03-24T15:35:19;12.50;99.90
21508;DHT22;10915;54.352;9.074;2023-03-24T15:37:49;12.50;99.90
21508;DHT22;10915;54.352;9.074;2023-03-24T15:42:51;12.40;99.90
21508;DHT22;10915;54.352;9.074;2023-03-24T15:45:25;12.40;99.90
21508;DHT22;10915;54.352;9.074;2023-03-24T15:47:52;12.30;99.90
21508;DHT22;10915;54.352;9.074;2023-03-24T15:53:05;12.30;99.90
21508;DHT22;10915;54.352;9.074;2023-03-24T15:55:35;12.20;99.90
21508;DHT22;10915;54.352;9.074;2023-03-24T15:58:25;12.10;99.90
21508;DHT22;10915;54.352;9.074;2023-03-24T16:00:54;12.10;99.90
21508;DHT22;10915;54.352;9.074;2023-03-24T16:03:21;12.10;99.90
21508;DHT22;10915;54.352;9.074;2023-03-24T16:05:55;12.10;99.90
21508;DHT22;10915;54.352;9.074;2023-03-24T16:11:03;12.10;99.90
21508;DHT22;10915;54.352;9.074;2023-03-24T16:13:32;12.10;99.90
21508;DHT22;10915;54.352;9.074;2023-03-24T16:16:06;12.10;99.90
21508;DHT22;10915;54.352;9.074;2023-03-24T16:18:34;12.00;99.90
21508;DHT22;10915;54.352;9.074;2023-03-24T16:21:02;12.00;99.90
21508;DHT22;10915;54.352;9.074;2023-03-24T16:23:33;12.00;99.90
21508;DHT22;10915;54.352;9.074;2023-03-24T16:25:59;12.00;99.90
21508;DHT22;10915;54.352;9.074;2023-03-24T16:28:25;11.90;99.90
21508;DHT22;10915;54.352;9.074;2023-03-24T16:31:00;11.90;99.90
21508;DHT22;10915;54.352;9.074;2023-03-24T16:33:26;11.80;99.90
21508;DHT22;10915;54.352;9.074;2023-03-24T16:35:52;11.80;99.90
21508;DHT22;10915;54.352;9.074;2023-03-24T16:38:18;11.70;99.90
21508;DHT22;10915;54.352;9.074;2023-03-24T16:40:51;11.70;99.90
21508;DHT22;10915;54.352;9.074;2023-03-24T16:43:18;11.60;99.90
21508;DHT22;10915;54.352;9.074;2023-03-24T16:45:48;11.60;99.90
21508;DHT22;10915;54.352;9.074;2023-03-24T16:48:14;11.60;99.90
21508;DHT22;10915;54.352;9.074;2023-03-24T16:50:45;11.50;99.90
21508;DHT22;10915;54.352;9.074;2023-03-24T16:53:14;11.40;99.90
21508;DHT22;10915;54.352;9.074;2023-03-24T16:55:40;11.30;99.90
21508;DHT22;10915;54.352;9.074;2023-03-24T16:58:06;11.30;99.90
21508;DHT22;10915;54.352;9.074;2023-03-24T17:00:33;11.30;99.90
21508;DHT22;10915;54.352;9.074;2023-03-24T17:03:01;11.20;99.90
21508;DHT22;10915;54.352;9.074;2023-03-24T17:05:39;11.10;99.90
21508;DHT22;10915;54.352;9.074;2023-03-24T17:08:05;11.10;99.90
21508;DHT22;10915;54.352;9.074;2023-03-24T17:10:31;11.00;99.90
21508;DHT22;10915;54.352;9.074;2023-03-24T17:12:57;10.90;99.90
21508;DHT22;10915;54.352;9.074;2023-03-24T17:15:28;10.80;99.90
21508;DHT22;10915;54.352;9.074;2023-03-24T17:17:55;10.80;99.90
21508;DHT22;10915;54.352;9.074;2023-03-24T17:20:22;10.70;99.90
21508;DHT22;10915;54.352;9.074;2023-03-24T17:22:50;10.70;99.90
21508;DHT22;10915;54.352;9.074;2023-03-24T17:25:18;10.50;99.90
21508;DHT22;10915;54.352;9.074;2023-03-24T17:27:45;10.50;99.90
21508;DHT22;10915;54.352;9.074;2023-03-24T17:30:16;10.40;99.90
21508;DHT22;10915;54.352;9.074;2023-03-24T17:32:42;10.40;99.90
21508;DHT22;10915;54.352;9.074;2023-03-24T17:35:18;10.30;99.90
21508;DHT22;10915;54.352;9.074;2023-03-24T17:37:45;10.20;99.90
21508;DHT22;10915;54.352;9.074;2023-03-24T17:40:12;10.20;99.90
21508;DHT22;10915;54.352;9.074;2023-03-24T17:42:39;10.10;99.90
21508;DHT22;10915;54.352;9.074;2023-03-24T17:45:07;10.00;99.90
21508;DHT22;10915;54.352;9.074;2023-03-24T17:47:33;10.00;99.90
21508;DHT22;10915;54.352;9.074;2023-03-24T17:49:59;9.90;99.90
21508;DHT22;10915;54.352;9.074;2023-03-24T17:52:24;10.00;99.90
21508;DHT22;10915;54.352;9.074;2023-03-24T17:54:50;9.90;99.90
21508;DHT22;10915;54.352;9.074;2023-03-24T17:57:16;10.00;99.90
21508;DHT22;10915;54.352;9.074;2023-03-24T17:59:42;10.00;99.90
21508;DHT22;10915;54.352;9.074;2023-03-24T18:02:11;9.90;99.90
21508;DHT22;10915;54.352;9.074;2023-03-24T18:04:37;9.90;99.90
21508;DHT22;10915;54.352;9.074;2023-03-24T18:07:03;9.90;99.90
21508;DHT22;10915;54.352;9.074;2023-03-24T18:09:31;9.90;99.90
21508;DHT22;10915;54.352;9.074;2023-03-24T18:11:57;9.80;99.90
21508;DHT22;10915;54.352;9.074;2023-03-24T18:14:23;9.70;99.90
21508;DHT22;10915;54.352;9.074;2023-03-24T18:16:49;9.60;99.90
21508;DHT22;10915;54.352;9.074;2023-03-24T18:19:15;9.60;99.90
21508;DHT22;10915;54.352;9.074;2023-03-24T18:21:41;9.60;99.90
21508;DHT22;10915;54.352;9.074;2023-03-24T18:24:07;9.50;99.90
21508;DHT22;10915;54.352;9.074;2023-03-24T18:26:33;9.50;99.90
21508;DHT22;10915;54.352;9.074;2023-03-24T18:28:59;9.50;99.90
21508;DHT22;10915;54.352;9.074;2023-03-24T18:31:25;9.50;99.90
21508;DHT22;10915;54.352;9.074;2023-03-24T18:33:52;9.50;99.90
21508;DHT22;10915;54.352;9.074;2023-03-24T18:36:20;9.40;99.90
21508;DHT22;10915;54.352;9.074;2023-03-24T18:38:56;9.40;99.90
21508;DHT22;10915;54.352;9.074;2023-03-24T18:41:22;9.40;99.90
21508;DHT22;10915;54.352;9.074;2023-03-24T18:43:55;9.40;99.90
21508;DHT22;10915;54.352;9.074;2023-03-24T18:46:21;9.40;99.90
21508;DHT22;10915;54.352;9.074;2023-03-24T18:48:47;9.40;99.90
21508;DHT22;10915;54.352;9.074;2023-03-24T18:51:13;9.40;99.90